createdAt,value
2023-02-15T00:01:08.537Z,9.07
2023-02-15T00:03:36.827Z,9.27
2023-02-15T00:06:06.548Z,9.40
2023-02-15T00:08:34.669Z,9.90
2023-02-15T00:11:07.439Z,9.47
2023-02-15T00:13:36.543Z,10.77
2023-02-15T00:16:04.988Z,10.63
2023-02-15T00:18:33.109Z,10.97
2023-02-15T00:21:01.664Z,13.53
2023-02-15T00:23:31.227Z,14.80
2023-02-15T00:26:06.370Z,14.63
2023-02-15T00:28:34.484Z,15.00
2023-02-15T00:31:07.182Z,15.47
2023-02-15T00:33:37.241Z,14.30
2023-02-15T00:36:05.497Z,15.23
2023-02-15T00:38:35.043Z,16.20
2023-02-15T00:41:04.253Z,16.53
2023-02-15T00:43:33.168Z,16.57
2023-02-15T00:46:03.562Z,15.90
2023-02-15T00:48:31.935Z,15.80
2023-02-15T00:51:00.705Z,17.07
2023-02-15T00:53:29.100Z,14.43
2023-02-15T00:55:58.684Z,15.27
2023-02-15T00:58:27.935Z,13.70
2023-02-15T01:00:56.131Z,12.77
2023-02-15T01:03:25.356Z,12.60
2023-02-15T01:05:53.502Z,13.77
2023-02-15T01:08:21.617Z,12.10
2023-02-15T01:10:50.898Z,11.97
2023-02-15T01:13:20.730Z,11.70
2023-02-15T01:15:53.956Z,12.20
2023-02-15T01:18:22.119Z,11.20
2023-02-15T01:20:50.695Z,13.27
2023-02-15T01:23:18.882Z,12.30
2023-02-15T01:25:48.466Z,11.20
2023-02-15T01:28:16.586Z,11.03
2023-02-15T01:30:46.129Z,11.80
2023-02-15T01:33:18.974Z,10.83
2023-02-15T01:35:47.896Z,10.77
2023-02-15T01:38:16.096Z,10.33
2023-02-15T01:40:44.882Z,12.10
2023-02-15T01:43:14.012Z,10.20
2023-02-15T01:45:45.301Z,10.33
2023-02-15T01:48:21.211Z,9.27
2023-02-15T01:50:50.309Z,9.73
2023-02-15T01:53:20.347Z,11.67
2023-02-15T01:55:50.233Z,9.97
2023-02-15T01:58:18.358Z,8.87
2023-02-15T02:00:47.683Z,9.53
2023-02-15T02:03:17.190Z,8.60
2023-02-15T02:05:45.314Z,9.43
2023-02-15T02:08:14.672Z,9.03
2023-02-15T02:10:42.800Z,10.00
2023-02-15T02:13:10.895Z,9.43
2023-02-15T02:15:43.025Z,8.73
2023-02-15T02:18:21.925Z,9.17
2023-02-15T02:21:43.681Z,9.13
2023-02-15T02:25:07.501Z,8.90
2023-02-15T02:27:41.043Z,8.63
2023-02-15T02:30:32.380Z,8.47
2023-02-15T02:33:47.940Z,7.80
2023-02-15T02:36:22.328Z,8.30
2023-02-15T02:39:06.936Z,8.17
2023-02-15T02:41:39.294Z,7.87
2023-02-15T02:44:10.450Z,8.60
2023-02-15T02:46:41.844Z,7.80
2023-02-15T02:49:10.296Z,7.97
2023-02-15T02:51:39.782Z,8.10
2023-02-15T02:54:08.097Z,8.03
2023-02-15T02:56:38.422Z,7.03
2023-02-15T02:59:08.321Z,8.20
2023-02-15T03:01:37.838Z,7.80
2023-02-15T03:04:07.758Z,7.43
2023-02-15T03:06:40.606Z,7.40
2023-02-15T03:09:15.444Z,6.60
2023-02-15T03:11:45.382Z,6.60
2023-02-15T03:14:14.493Z,6.07
2023-02-15T03:16:42.984Z,5.80
2023-02-15T03:19:14.693Z,5.33
2023-02-15T03:21:50.585Z,5.77
2023-02-15T03:24:21.362Z,6.17
2023-02-15T03:26:51.826Z,6.53
2023-02-15T03:29:21.777Z,7.20
2023-02-15T03:31:56.072Z,7.73
2023-02-15T03:34:24.284Z,7.37
2023-02-15T03:36:57.402Z,8.13
2023-02-15T03:39:28.148Z,7.60
2023-02-15T03:41:58.975Z,7.93
2023-02-15T03:44:30.163Z,8.03
2023-02-15T03:47:01.933Z,7.47
2023-02-15T03:49:31.538Z,7.30
2023-02-15T03:51:59.980Z,6.90
2023-02-15T03:54:44.653Z,6.30
2023-02-15T03:57:32.314Z,7.27
2023-02-15T04:00:17.961Z,7.80
2023-02-15T04:02:53.022Z,6.60
2023-02-15T04:05:21.212Z,7.00
2023-02-15T04:07:50.692Z,6.93
2023-02-15T04:10:37.138Z,7.17
2023-02-15T04:13:05.245Z,6.80
2023-02-15T04:15:50.563Z,6.77
2023-02-15T04:18:18.662Z,6.70
2023-02-15T04:21:04.256Z,6.90
2023-02-15T04:23:51.166Z,6.60
2023-02-15T04:26:19.261Z,6.83
2023-02-15T04:28:47.665Z,7.53
2023-02-15T04:31:15.857Z,7.73
2023-02-15T04:33:44.877Z,6.73
2023-02-15T04:36:13.058Z,7.50
2023-02-15T04:38:42.520Z,7.03
2023-02-15T04:41:12.419Z,7.20
2023-02-15T04:43:40.654Z,7.10
2023-02-15T04:46:08.810Z,6.53
2023-02-15T04:48:36.947Z,6.77
2023-02-15T04:51:07.640Z,6.67
2023-02-15T04:53:35.762Z,7.13
2023-02-15T04:56:05.532Z,6.53
2023-02-15T04:58:33.626Z,7.37
2023-02-15T05:01:01.792Z,7.37
2023-02-15T05:03:29.951Z,7.50
2023-02-15T05:05:58.324Z,7.23
2023-02-15T05:08:26.551Z,6.37
2023-02-15T05:10:54.657Z,6.40
2023-02-15T05:13:24.208Z,5.67
2023-02-15T05:15:52.482Z,7.67
2023-02-15T05:18:21.110Z,6.93
2023-02-15T05:20:49.583Z,6.87
2023-02-15T05:23:17.717Z,6.87
2023-02-15T05:26:03.336Z,6.73
2023-02-15T05:28:33.030Z,7.10
2023-02-15T05:31:06.820Z,7.00
2023-02-15T05:33:35.544Z,7.10
2023-02-15T05:36:04.021Z,7.20
2023-02-15T05:38:32.593Z,6.87
2023-02-15T05:41:00.687Z,6.77
2023-02-15T05:43:28.954Z,7.80
2023-02-15T05:45:58.511Z,6.97
2023-02-15T05:48:27.654Z,7.80
2023-02-15T05:51:02.080Z,7.63
2023-02-15T05:53:30.464Z,7.87
2023-02-15T05:56:00.917Z,7.17
2023-02-15T05:58:29.450Z,6.97
2023-02-15T06:00:59.234Z,7.37
2023-02-15T06:03:29.409Z,7.80
2023-02-15T06:05:57.579Z,6.70
2023-02-15T06:08:25.699Z,7.50
2023-02-15T06:10:53.810Z,6.23
2023-02-15T06:13:22.297Z,6.13
2023-02-15T06:15:50.736Z,6.37
2023-02-15T06:18:20.250Z,6.40
2023-02-15T06:20:48.413Z,6.57
2023-02-15T06:23:16.597Z,6.40
2023-02-15T06:25:44.771Z,6.90
2023-02-15T06:28:13.161Z,6.37
2023-02-15T06:30:41.292Z,5.80
2023-02-15T06:33:09.443Z,6.13
2023-02-15T06:35:38.970Z,5.30
2023-02-15T06:38:07.111Z,5.73
2023-02-15T06:40:35.334Z,4.83
2023-02-15T06:43:03.676Z,4.87
2023-02-15T06:45:31.820Z,5.03
2023-02-15T06:47:59.914Z,5.27
2023-02-15T06:50:28.042Z,5.27
2023-02-15T06:52:59.417Z,4.53
2023-02-15T06:55:27.833Z,5.33
2023-02-15T06:57:56.065Z,5.80
2023-02-15T07:00:24.633Z,6.07
2023-02-15T07:02:57.286Z,7.10
2023-02-15T07:05:25.437Z,8.73
2023-02-15T07:07:53.850Z,9.70
2023-02-15T07:10:23.695Z,9.60
2023-02-15T07:12:50.782Z,10.53
2023-02-15T07:15:21.625Z,9.93
2023-02-15T07:17:50.011Z,10.43
2023-02-15T07:20:20.468Z,8.80
2023-02-15T07:22:48.881Z,9.50
2023-02-15T07:25:17.180Z,9.87
2023-02-15T07:27:46.795Z,10.07
2023-02-15T07:30:16.372Z,10.40
2023-02-15T07:32:58.705Z,10.10
2023-02-15T07:35:26.854Z,9.27
2023-02-15T07:37:54.945Z,9.40
2023-02-15T07:40:24.522Z,8.67
2023-02-15T07:42:55.827Z,8.73
2023-02-15T07:45:24.220Z,8.80
2023-02-15T07:47:52.414Z,8.47
2023-02-15T07:50:20.812Z,7.43
2023-02-15T07:52:48.937Z,7.00
2023-02-15T07:55:17.201Z,9.10
2023-02-15T07:57:46.176Z,10.10
2023-02-15T08:00:17.806Z,9.33
2023-02-15T08:02:50.020Z,9.10
2023-02-15T08:05:19.338Z,7.97
2023-02-15T08:07:47.487Z,6.97
2023-02-15T08:10:37.099Z,8.27
2023-02-15T08:13:05.185Z,6.97
2023-02-15T08:15:34.706Z,7.20
2023-02-15T08:18:03.261Z,7.63
2023-02-15T08:20:31.400Z,7.03
2023-02-15T08:23:00.150Z,7.30
2023-02-15T08:25:28.271Z,6.17
2023-02-15T08:27:56.685Z,7.63
2023-02-15T08:30:25.215Z,7.77
2023-02-15T08:32:54.712Z,6.43
2023-02-15T08:35:22.769Z,5.83
2023-02-15T08:37:50.881Z,7.37
2023-02-15T08:40:18.998Z,7.20
2023-02-15T08:42:47.074Z,5.60
2023-02-15T08:45:15.489Z,4.23
2023-02-15T08:47:43.609Z,3.30
2023-02-15T08:50:13.236Z,4.63
2023-02-15T08:52:41.409Z,4.63
2023-02-15T08:55:10.057Z,5.10
2023-02-15T08:57:39.627Z,5.63
2023-02-15T09:00:09.089Z,6.00
2023-02-15T09:02:38.120Z,4.43
2023-02-15T09:05:06.747Z,6.17
2023-02-15T09:07:36.325Z,7.90
2023-02-15T09:10:04.457Z,6.43
2023-02-15T09:12:33.334Z,5.57
2023-02-15T09:15:01.445Z,9.30
2023-02-15T09:17:29.670Z,9.07
2023-02-15T09:19:57.951Z,6.53
2023-02-15T09:22:26.145Z,7.90
2023-02-15T09:24:55.710Z,7.40
2023-02-15T09:27:24.140Z,7.30
2023-02-15T09:29:52.268Z,6.13
2023-02-15T09:32:20.466Z,5.77
2023-02-15T09:34:48.611Z,5.40
2023-02-15T09:37:16.726Z,5.60
2023-02-15T09:39:45.454Z,5.23
2023-02-15T09:42:23.406Z,4.90
2023-02-15T09:45:00.273Z,5.03
2023-02-15T09:47:41.513Z,4.07
2023-02-15T09:50:12.650Z,3.97
2023-02-15T09:53:03.275Z,4.27
2023-02-15T09:55:39.215Z,4.20
2023-02-15T09:58:12.092Z,4.00
2023-02-15T10:00:45.148Z,4.17
2023-02-15T10:03:31.853Z,4.20
2023-02-15T10:06:08.159Z,3.70
2023-02-15T10:08:45.446Z,3.67
2023-02-15T10:11:34.514Z,4.03
2023-02-15T10:14:12.641Z,3.70
2023-02-15T10:16:43.553Z,3.90
2023-02-15T10:19:13.935Z,3.37
2023-02-15T10:21:48.839Z,3.70
2023-02-15T10:24:27.938Z,3.63
2023-02-15T10:26:56.516Z,3.40
2023-02-15T10:29:31.242Z,3.33
2023-02-15T10:32:03.364Z,3.47
2023-02-15T10:34:34.000Z,3.37
2023-02-15T10:37:33.045Z,3.43
2023-02-15T10:40:05.136Z,2.80
2023-02-15T10:42:36.643Z,2.70
2023-02-15T10:45:11.899Z,2.80
2023-02-15T10:47:55.614Z,3.13
2023-02-15T10:50:28.631Z,2.43
2023-02-15T10:53:03.021Z,2.33
2023-02-15T10:55:38.191Z,2.10
2023-02-15T10:58:11.465Z,1.90
2023-02-15T11:00:43.162Z,1.70
2023-02-15T11:03:25.585Z,2.40
2023-02-15T11:05:59.694Z,2.77
2023-02-15T11:08:27.878Z,3.53
2023-02-15T11:10:58.112Z,9.10
2023-02-15T11:13:28.553Z,3.40
2023-02-15T11:15:59.209Z,2.10
2023-02-15T11:18:28.738Z,1.60
2023-02-15T11:20:57.909Z,1.60
2023-02-15T11:23:26.438Z,1.60
2023-02-15T11:25:57.062Z,1.27
2023-02-15T11:28:27.216Z,0.90
2023-02-15T11:30:58.075Z,1.10
2023-02-15T11:33:28.711Z,1.20
2023-02-15T11:35:59.789Z,1.20
2023-02-15T11:38:29.924Z,1.10
2023-02-15T11:40:59.651Z,0.80
2023-02-15T11:43:31.016Z,1.10
2023-02-15T11:46:00.911Z,1.10
2023-02-15T11:48:29.069Z,0.90
2023-02-15T11:50:57.406Z,0.70
2023-02-15T11:53:26.363Z,1.53
2023-02-15T11:55:54.529Z,1.10
2023-02-15T11:58:29.192Z,1.80
2023-02-15T12:01:00.796Z,1.77
2023-02-15T12:03:31.446Z,1.80
2023-02-15T12:06:02.664Z,1.90
2023-02-15T12:08:34.131Z,1.73
2023-02-15T12:11:05.241Z,1.80
2023-02-15T12:13:33.378Z,1.97
2023-02-15T12:16:11.112Z,1.60
2023-02-15T12:18:40.663Z,1.73
2023-02-15T12:21:09.873Z,2.10
2023-02-15T12:23:44.705Z,1.70
2023-02-15T12:26:12.820Z,1.83
2023-02-15T12:28:42.801Z,2.13
2023-02-15T12:31:22.253Z,1.87
2023-02-15T12:33:50.476Z,2.07
2023-02-15T12:36:20.867Z,2.10
2023-02-15T12:39:18.671Z,2.27
2023-02-15T12:41:47.990Z,1.87
2023-02-15T12:44:19.982Z,1.63
2023-02-15T12:47:00.231Z,1.80
2023-02-15T12:49:28.638Z,2.10
2023-02-15T12:51:57.480Z,2.30
2023-02-15T12:54:35.428Z,2.20
2023-02-15T12:57:17.414Z,1.90
2023-02-15T12:59:52.477Z,1.87
2023-02-15T13:02:33.642Z,2.13
2023-02-15T13:05:10.608Z,1.93
2023-02-15T13:07:38.742Z,1.83
2023-02-15T13:10:08.397Z,1.80
2023-02-15T13:12:37.289Z,1.80
2023-02-15T13:15:06.416Z,1.70
2023-02-15T13:17:35.917Z,1.97
2023-02-15T13:20:08.384Z,1.80
2023-02-15T13:22:43.025Z,2.17
2023-02-15T13:25:14.606Z,2.03
2023-02-15T13:27:43.474Z,2.20
2023-02-15T13:30:20.489Z,1.83
2023-02-15T13:32:50.643Z,2.00
2023-02-15T13:35:19.873Z,1.83
2023-02-15T13:37:55.414Z,2.20
2023-02-15T13:40:25.299Z,2.13
2023-02-15T13:42:56.043Z,1.70
2023-02-15T13:45:38.774Z,1.93
2023-02-15T13:48:14.420Z,2.20
2023-02-15T13:50:55.898Z,2.03
2023-02-15T13:54:06.147Z,1.90
2023-02-15T13:56:40.617Z,1.90
2023-02-15T13:59:20.699Z,2.13
2023-02-15T14:01:52.443Z,2.17
2023-02-15T14:04:41.334Z,1.97
2023-02-15T14:07:16.961Z,2.20
2023-02-15T14:09:52.581Z,1.93
2023-02-15T14:12:34.601Z,2.23
2023-02-15T14:15:14.793Z,2.10
2023-02-15T14:17:49.880Z,2.40
2023-02-15T14:20:22.691Z,2.30
2023-02-15T14:22:52.964Z,2.17
2023-02-15T14:25:22.763Z,2.33
2023-02-15T14:27:56.802Z,2.40
2023-02-15T14:30:27.777Z,2.30
2023-02-15T14:32:57.138Z,2.30
2023-02-15T14:35:28.887Z,2.50
2023-02-15T14:38:00.299Z,2.30
2023-02-15T14:40:52.597Z,2.23
2023-02-15T14:43:25.834Z,2.37
2023-02-15T14:45:56.142Z,2.23
2023-02-15T14:48:26.454Z,2.30
2023-02-15T14:50:55.972Z,2.40
2023-02-15T14:53:47.269Z,2.20
2023-02-15T14:56:33.453Z,2.50
2023-02-15T14:59:18.739Z,2.40
2023-02-15T15:01:55.331Z,2.00
2023-02-15T15:04:29.659Z,2.37
2023-02-15T15:07:10.960Z,1.83
2023-02-15T15:09:39.846Z,1.80
2023-02-15T15:12:33.318Z,1.97
2023-02-15T15:15:02.294Z,2.13
2023-02-15T15:17:58.483Z,2.17
2023-02-15T15:20:51.808Z,2.10
2023-02-15T15:23:55.676Z,1.90
2023-02-15T15:26:28.883Z,2.30
2023-02-15T15:29:01.361Z,1.90
2023-02-15T15:31:38.788Z,1.90
2023-02-15T15:34:35.730Z,2.27
2023-02-15T15:37:36.673Z,2.33
2023-02-15T15:40:31.496Z,2.10
2023-02-15T15:43:31.471Z,2.00
2023-02-15T15:46:06.416Z,2.47
2023-02-15T15:48:35.758Z,2.67
2023-02-15T15:51:07.141Z,2.40
2023-02-15T15:53:41.050Z,2.30
2023-02-15T15:56:12.094Z,2.07
2023-02-15T15:58:42.620Z,2.50
2023-02-15T16:01:12.623Z,2.37
2023-02-15T16:03:40.899Z,2.30
2023-02-15T16:06:15.192Z,2.07
2023-02-15T16:08:43.330Z,2.60
2023-02-15T16:11:17.965Z,2.33
2023-02-15T16:13:46.083Z,2.30
2023-02-15T16:16:14.341Z,2.13
2023-02-15T16:18:43.530Z,2.30
2023-02-15T16:21:16.330Z,2.57
2023-02-15T16:23:57.479Z,2.10
2023-02-15T16:26:46.601Z,2.53
2023-02-15T16:29:16.652Z,2.50
2023-02-15T16:31:45.232Z,2.50
2023-02-15T16:34:18.703Z,2.40
2023-02-15T16:36:46.804Z,2.30
2023-02-15T16:39:20.941Z,2.27
2023-02-15T16:41:50.495Z,2.40
2023-02-15T16:44:20.377Z,2.50
2023-02-15T16:46:50.351Z,2.03
2023-02-15T16:49:20.162Z,2.50
2023-02-15T16:51:56.956Z,2.70
2023-02-15T16:54:25.364Z,2.40
2023-02-15T16:56:54.838Z,2.40
2023-02-15T16:59:31.435Z,3.23
2023-02-15T17:01:59.721Z,2.53
2023-02-15T17:04:32.383Z,3.07
2023-02-15T17:07:02.148Z,4.13
2023-02-15T17:09:30.392Z,3.90
2023-02-15T17:12:02.988Z,2.93
2023-02-15T17:14:32.475Z,2.90
2023-02-15T17:17:05.059Z,3.30
2023-02-15T17:19:33.850Z,4.60
2023-02-15T17:22:04.111Z,3.77
2023-02-15T17:24:37.530Z,3.67
2023-02-15T17:27:12.406Z,4.00
2023-02-15T17:29:41.417Z,3.27
2023-02-15T17:32:17.023Z,3.67
2023-02-15T17:34:50.622Z,3.40
2023-02-15T17:37:27.095Z,4.63
2023-02-15T17:39:55.229Z,4.27
2023-02-15T17:42:24.710Z,5.33
2023-02-15T17:44:52.952Z,4.13
2023-02-15T17:47:21.990Z,4.30
2023-02-15T17:49:50.498Z,4.00
2023-02-15T17:52:18.708Z,4.73
2023-02-15T17:55:04.638Z,5.60
2023-02-15T17:57:34.278Z,5.13
2023-02-15T18:00:19.578Z,5.03
2023-02-15T18:03:05.194Z,6.03
2023-02-15T18:05:50.963Z,8.77
2023-02-15T18:08:37.252Z,7.13
2023-02-15T18:11:23.067Z,5.73
2023-02-15T18:13:53.160Z,6.07
2023-02-15T18:16:22.927Z,5.93
2023-02-15T18:18:51.044Z,5.23
2023-02-15T18:21:19.192Z,4.73
2023-02-15T18:23:47.495Z,4.80
2023-02-15T18:26:20.127Z,5.60
2023-02-15T18:28:48.244Z,6.47
2023-02-15T18:31:18.325Z,6.03
2023-02-15T18:33:48.224Z,10.77
2023-02-15T18:36:19.456Z,13.17
2023-02-15T18:38:47.605Z,22.50
2023-02-15T18:41:19.643Z,17.37
2023-02-15T18:43:48.921Z,17.23
2023-02-15T18:46:19.218Z,17.10
2023-02-15T18:48:47.715Z,15.57
2023-02-15T18:51:20.042Z,12.63
2023-02-15T18:53:48.606Z,12.07
2023-02-15T18:56:18.728Z,10.90
2023-02-15T18:58:48.411Z,9.57
2023-02-15T19:01:19.690Z,10.03
2023-02-15T19:03:48.726Z,9.03
2023-02-15T19:06:18.636Z,8.23
2023-02-15T19:08:47.277Z,8.63
2023-02-15T19:11:20.348Z,10.63
2023-02-15T19:13:49.661Z,10.77
2023-02-15T19:16:38.199Z,9.93
2023-02-15T19:19:08.016Z,8.73
2023-02-15T19:21:37.573Z,8.87
2023-02-15T19:24:08.375Z,8.60
2023-02-15T19:26:45.411Z,8.80
2023-02-15T19:29:16.577Z,8.17
2023-02-15T19:31:46.780Z,8.20
2023-02-15T19:34:16.066Z,8.43
2023-02-15T19:36:44.402Z,8.53
2023-02-15T19:39:22.576Z,8.07
2023-02-15T19:41:50.789Z,7.87
2023-02-15T19:44:19.514Z,7.10
2023-02-15T19:46:49.314Z,7.07
2023-02-15T19:49:17.711Z,7.00
2023-02-15T19:51:46.126Z,7.17
2023-02-15T19:54:22.429Z,7.40
2023-02-15T19:56:50.827Z,6.50
2023-02-15T19:59:25.137Z,7.00
2023-02-15T20:01:55.126Z,6.33
2023-02-15T20:04:23.984Z,7.90
2023-02-15T20:06:52.180Z,7.80
2023-02-15T20:09:23.984Z,8.10
2023-02-15T20:11:52.749Z,7.77
2023-02-15T20:14:21.544Z,8.00
2023-02-15T20:16:49.841Z,8.37
2023-02-15T20:19:19.456Z,7.80
2023-02-15T20:21:51.790Z,7.27
2023-02-15T20:24:21.405Z,7.90
2023-02-15T20:26:49.774Z,7.73
2023-02-15T20:29:20.700Z,7.47
2023-02-15T20:31:49.216Z,7.33
2023-02-15T20:34:17.756Z,7.03
2023-02-15T20:36:47.447Z,6.80
2023-02-15T20:39:16.860Z,7.47
2023-02-15T20:41:48.355Z,6.50
2023-02-15T20:44:21.820Z,6.43
2023-02-15T20:46:52.187Z,5.90
2023-02-15T20:49:20.679Z,6.33
2023-02-15T20:51:50.686Z,6.10
2023-02-15T20:54:19.500Z,5.80
2023-02-15T20:56:48.338Z,6.00
2023-02-15T20:59:26.774Z,6.23
2023-02-15T21:01:57.938Z,6.30
2023-02-15T21:04:30.454Z,5.80
2023-02-15T21:07:00.322Z,6.17
2023-02-15T21:09:28.601Z,5.50
2023-02-15T21:11:57.722Z,5.90
2023-02-15T21:14:27.318Z,5.33
2023-02-15T21:16:55.476Z,5.40
2023-02-15T21:19:24.538Z,6.03
2023-02-15T21:21:53.882Z,5.93
2023-02-15T21:24:24.417Z,5.93
2023-02-15T21:26:52.756Z,5.20
2023-02-15T21:29:21.961Z,5.30
2023-02-15T21:31:50.158Z,6.07
2023-02-15T21:34:19.145Z,6.50
2023-02-15T21:36:47.447Z,6.80
2023-02-15T21:39:17.337Z,7.57
2023-02-15T21:42:04.918Z,7.67
2023-02-15T21:44:50.424Z,6.90
2023-02-15T21:47:40.117Z,5.73
2023-02-15T21:50:23.797Z,5.97
2023-02-15T21:52:51.929Z,6.10
2023-02-15T21:55:20.092Z,6.00
2023-02-15T21:57:49.619Z,5.83
2023-02-15T22:00:19.466Z,5.80
2023-02-15T22:02:48.618Z,6.63
2023-02-15T22:05:18.084Z,6.93
2023-02-15T22:07:46.311Z,6.60
2023-02-15T22:10:14.434Z,8.83
2023-02-15T22:12:43.037Z,7.93
2023-02-15T22:15:19.861Z,8.10
2023-02-15T22:17:48.017Z,8.47
2023-02-15T22:20:17.468Z,7.20
2023-02-15T22:22:46.094Z,7.13
2023-02-15T22:25:19.014Z,6.50
2023-02-15T22:27:47.720Z,6.47
2023-02-15T22:30:21.618Z,6.27
2023-02-15T22:32:49.898Z,6.10
2023-02-15T22:35:18.638Z,6.33
2023-02-15T22:37:46.713Z,5.40
2023-02-15T22:40:16.222Z,6.40
2023-02-15T22:42:44.690Z,6.23
2023-02-15T22:45:17.265Z,6.13
2023-02-15T22:47:46.819Z,6.23
2023-02-15T22:50:17.196Z,6.07
2023-02-15T22:52:45.445Z,6.23
2023-02-15T22:55:15.979Z,6.70
2023-02-15T22:57:44.089Z,6.47
2023-02-15T23:00:16.500Z,6.37
2023-02-15T23:02:46.058Z,6.37
2023-02-15T23:05:21.268Z,7.10
2023-02-15T23:07:49.493Z,6.47
2023-02-15T23:10:24.148Z,6.07
2023-02-15T23:13:10.493Z,6.63
2023-02-15T23:15:38.686Z,6.17
2023-02-15T23:18:17.148Z,6.23
2023-02-15T23:20:45.381Z,6.97
2023-02-15T23:23:14.429Z,6.80
2023-02-15T23:25:42.597Z,6.87
2023-02-15T23:28:22.987Z,6.50
2023-02-15T23:30:51.070Z,6.97
2023-02-15T23:33:22.164Z,7.10
2023-02-15T23:35:50.757Z,7.40
2023-02-15T23:38:23.056Z,6.60
2023-02-15T23:41:11.292Z,5.77
2023-02-15T23:43:39.799Z,6.40
2023-02-15T23:46:08.036Z,6.70
2023-02-15T23:48:38.922Z,6.93
2023-02-15T23:51:07.012Z,6.60
2023-02-15T23:53:35.161Z,6.60
2023-02-15T23:56:03.239Z,7.60
2023-02-15T23:58:36.496Z,7.83
